Terminal Aerodrome Forecast
Issued by NWS

Home | Current Version | Previous Version | Text Only | Print | Product List | Glossary On
Versions: 1 2 3 4 5 6 7 8 9 10 11 12 13 14 15 16 17 18 19 20 21 22 23 24
000
FTUS44 KMAF 221100
TAFPEQ
TAF
KPEQ 221135Z 2212/2312 08006KT P6SM SCT030 OVC080
      TEMPO 2212/2216 3SM -SHRA BR BKN015
     FM221600 10010KT P6SM BKN025
      TEMPO 2216/2220 4SM -SHRA BR
     FM222000 11012KT P6SM BKN070
      TEMPO 2220/2224 4SM -SHRA BR=

USA.gov is the U.S. government's official web portal to all federal, state and local government web resources and services.